createdAt,value
2023-02-12T00:01:17.856Z,3.00
2023-02-12T00:03:44.509Z,3.00
2023-02-12T00:06:13.563Z,3.00
2023-02-12T00:08:42.189Z,3.00
2023-02-12T00:11:14.660Z,3.00
2023-02-12T00:13:41.865Z,3.00
2023-02-12T00:16:10.726Z,3.00
2023-02-12T00:18:37.565Z,3.00
2023-02-12T00:21:04.871Z,3.00
2023-02-12T00:23:32.192Z,2.90
2023-02-12T00:25:58.803Z,2.90
2023-02-12T00:28:25.710Z,2.90
2023-02-12T00:30:52.467Z,2.90
2023-02-12T00:33:19.098Z,2.80
2023-02-12T00:35:45.649Z,2.80
2023-02-12T00:38:12.253Z,2.70
2023-02-12T00:40:38.858Z,2.70
2023-02-12T00:43:05.971Z,2.70
2023-02-12T00:45:32.601Z,2.70
2023-02-12T00:47:59.169Z,2.70
2023-02-12T00:50:25.786Z,2.70
2023-02-12T00:52:52.285Z,2.70
2023-02-12T00:55:19.387Z,2.70
2023-02-12T00:57:46.081Z,2.60
2023-02-12T01:00:14.309Z,2.60
2023-02-12T01:02:40.861Z,2.60
2023-02-12T01:05:07.953Z,2.60
2023-02-12T01:07:34.558Z,2.60
2023-02-12T01:10:01.109Z,2.70
2023-02-12T01:12:27.662Z,2.70
2023-02-12T01:14:54.183Z,2.70
2023-02-12T01:17:20.702Z,2.80
2023-02-12T01:19:47.228Z,2.80
2023-02-12T01:22:13.764Z,2.80
2023-02-12T01:24:40.653Z,2.80
2023-02-12T01:27:07.199Z,2.80
2023-02-12T01:29:33.906Z,2.70
2023-02-12T01:32:00.614Z,2.70
2023-02-12T01:34:27.246Z,2.70
2023-02-12T01:36:53.769Z,2.60
2023-02-12T01:39:20.296Z,2.60
2023-02-12T01:41:47.007Z,2.60
2023-02-12T01:44:18.297Z,2.60
2023-02-12T01:46:46.640Z,2.60
2023-02-12T01:49:24.361Z,2.50
2023-02-12T01:52:00.642Z,2.50
2023-02-12T01:54:28.692Z,2.60
2023-02-12T01:56:55.535Z,2.50
2023-02-12T01:59:22.453Z,2.50
2023-02-12T02:01:49.091Z,2.50
2023-02-12T02:04:19.724Z,2.50
2023-02-12T02:07:01.011Z,2.50
2023-02-12T02:09:30.104Z,2.50
2023-02-12T02:12:15.786Z,2.50
2023-02-12T02:14:43.064Z,2.50
2023-02-12T02:17:34.854Z,2.50
2023-02-12T02:20:48.625Z,2.60
2023-02-12T02:23:30.183Z,2.60
2023-02-12T02:26:38.450Z,2.50
2023-02-12T02:29:30.516Z,2.50
2023-02-12T02:32:06.176Z,2.60
2023-02-12T02:35:10.375Z,2.70
2023-02-12T02:37:47.708Z,2.70
2023-02-12T02:40:26.716Z,2.70
2023-02-12T02:43:05.316Z,2.60
2023-02-12T02:45:42.136Z,2.60
2023-02-12T02:48:15.642Z,2.60
2023-02-12T02:50:47.336Z,2.50
2023-02-12T02:53:26.814Z,2.50
2023-02-12T02:55:57.386Z,2.50
2023-02-12T02:58:30.283Z,2.50
2023-02-12T03:01:17.849Z,2.50
2023-02-12T03:04:13.426Z,2.50
2023-02-12T03:06:47.072Z,2.50
2023-02-12T03:09:28.748Z,2.40
2023-02-12T03:12:00.254Z,2.50
2023-02-12T03:14:32.039Z,2.50
2023-02-12T03:17:12.472Z,2.60
2023-02-12T03:19:44.915Z,2.60
2023-02-12T03:22:16.700Z,2.60
2023-02-12T03:25:05.531Z,2.60
2023-02-12T03:27:37.130Z,2.70
2023-02-12T03:30:04.570Z,2.70
2023-02-12T03:32:40.981Z,2.60
2023-02-12T03:35:28.746Z,2.60
2023-02-12T03:38:07.532Z,2.60
2023-02-12T03:40:56.245Z,2.60
2023-02-12T03:43:33.003Z,2.60
2023-02-12T03:46:17.668Z,2.50
2023-02-12T03:48:58.435Z,2.50
2023-02-12T03:51:34.906Z,2.50
2023-02-12T03:54:02.391Z,2.50
2023-02-12T03:56:35.195Z,2.50
2023-02-12T03:59:02.804Z,2.40
2023-02-12T04:01:29.647Z,2.40
2023-02-12T04:03:57.148Z,2.40
2023-02-12T04:06:28.923Z,2.40
2023-02-12T04:08:59.070Z,2.40
2023-02-12T04:11:52.483Z,2.40
2023-02-12T04:14:35.584Z,2.40
2023-02-12T04:17:26.445Z,2.40
2023-02-12T04:20:04.697Z,2.40
2023-02-12T04:22:46.082Z,2.30
2023-02-12T04:25:37.996Z,2.40
2023-02-12T04:28:16.520Z,2.30
2023-02-12T04:31:01.216Z,2.40
2023-02-12T04:33:36.423Z,2.30
2023-02-12T04:36:16.774Z,2.30
2023-02-12T04:38:46.798Z,2.30
2023-02-12T04:41:13.913Z,2.20
2023-02-12T04:43:40.456Z,2.20
2023-02-12T04:46:08.548Z,2.20
2023-02-12T04:48:39.676Z,2.10
2023-02-12T04:51:06.165Z,2.10
2023-02-12T04:53:32.819Z,2.10
2023-02-12T04:55:59.352Z,2.10
2023-02-12T04:58:25.870Z,2.10
2023-02-12T05:00:52.384Z,2.10
2023-02-12T05:03:18.914Z,2.10
2023-02-12T05:05:45.461Z,2.10
2023-02-12T05:08:11.978Z,2.10
2023-02-12T05:10:38.555Z,2.10
2023-02-12T05:13:05.052Z,2.10
2023-02-12T05:15:31.618Z,2.20
2023-02-12T05:17:58.150Z,2.20
2023-02-12T05:20:24.750Z,2.20
2023-02-12T05:22:53.322Z,2.20
2023-02-12T05:25:20.374Z,2.20
2023-02-12T05:27:47.249Z,2.20
2023-02-12T05:30:14.011Z,2.20
2023-02-12T05:32:40.611Z,2.30
2023-02-12T05:35:07.853Z,2.30
2023-02-12T05:37:36.121Z,2.20
2023-02-12T05:40:05.532Z,2.20
2023-02-12T05:42:32.194Z,2.20
2023-02-12T05:44:58.775Z,2.20
2023-02-12T05:47:25.332Z,2.10
2023-02-12T05:49:52.063Z,2.10
2023-02-12T05:52:18.626Z,2.10
2023-02-12T05:54:45.176Z,2.10
2023-02-12T05:57:11.743Z,2.10
2023-02-12T05:59:39.187Z,2.10
2023-02-12T06:02:05.771Z,2.10
2023-02-12T06:04:32.340Z,2.10
2023-02-12T06:07:00.671Z,2.10
2023-02-12T06:09:27.254Z,2.00
2023-02-12T06:11:53.761Z,2.00
2023-02-12T06:14:21.302Z,2.00
2023-02-12T06:16:50.827Z,2.00
2023-02-12T06:19:18.682Z,2.00
2023-02-12T06:21:46.216Z,2.00
2023-02-12T06:24:13.945Z,2.10
2023-02-12T06:26:40.818Z,2.10
2023-02-12T06:29:07.532Z,2.20
2023-02-12T06:31:36.434Z,2.20
2023-02-12T06:34:08.381Z,2.20
2023-02-12T06:36:41.518Z,2.20
2023-02-12T06:39:08.619Z,2.20
2023-02-12T06:41:35.164Z,2.30
2023-02-12T06:44:01.827Z,2.30
2023-02-12T06:46:28.416Z,2.30
2023-02-12T06:49:00.289Z,2.30
2023-02-12T06:51:28.856Z,2.30
2023-02-12T06:53:56.151Z,2.40
2023-02-12T06:56:24.379Z,2.40
2023-02-12T06:59:00.304Z,2.50
2023-02-12T07:01:29.309Z,2.50
2023-02-12T07:04:02.418Z,2.50
2023-02-12T07:06:30.801Z,2.60
2023-02-12T07:08:58.212Z,2.60
2023-02-12T07:11:26.411Z,2.70
2023-02-12T07:13:53.151Z,2.80
2023-02-12T07:16:20.072Z,2.80
2023-02-12T07:18:46.657Z,2.80
2023-02-12T07:21:14.551Z,2.90
2023-02-12T07:23:41.387Z,3.00
2023-02-12T07:26:11.505Z,3.20
2023-02-12T07:28:39.116Z,3.30
2023-02-12T07:31:17.293Z,3.40
2023-02-12T07:33:44.714Z,3.60
2023-02-12T07:36:17.162Z,3.70
2023-02-12T07:38:44.130Z,3.80
2023-02-12T07:41:13.669Z,3.90
2023-02-12T07:43:41.682Z,4.00
2023-02-12T07:46:14.304Z,4.10
2023-02-12T07:48:41.046Z,4.10
2023-02-12T07:51:09.970Z,4.20
2023-02-12T07:53:37.063Z,4.30
2023-02-12T07:56:14.951Z,4.30
2023-02-12T07:58:44.834Z,4.40
2023-02-12T08:01:30.005Z,4.50
2023-02-12T08:04:03.054Z,4.60
2023-02-12T08:06:31.684Z,4.80
2023-02-12T08:09:00.557Z,5.00
2023-02-12T08:11:28.976Z,5.20
2023-02-12T08:13:56.867Z,5.40
2023-02-12T08:16:25.105Z,5.60
2023-02-12T08:18:52.527Z,5.70
2023-02-12T08:21:21.345Z,5.90
2023-02-12T08:23:51.191Z,6.20
2023-02-12T08:26:21.018Z,6.40
2023-02-12T08:28:55.944Z,6.70
2023-02-12T08:31:55.162Z,7.00
2023-02-12T08:34:30.450Z,7.40
2023-02-12T08:36:57.775Z,7.80
2023-02-12T08:39:26.532Z,8.10
2023-02-12T08:41:57.534Z,8.30
2023-02-12T08:44:24.389Z,8.70
2023-02-12T08:46:52.998Z,9.00
2023-02-12T08:49:22.539Z,9.20
2023-02-12T08:51:52.511Z,9.50
2023-02-12T08:54:22.879Z,9.70
2023-02-12T08:56:50.333Z,10.00
2023-02-12T08:59:17.749Z,10.20
2023-02-12T09:01:44.968Z,10.50
2023-02-12T09:04:17.971Z,10.80
2023-02-12T09:06:45.926Z,11.10
2023-02-12T09:09:12.823Z,11.40
2023-02-12T09:11:39.548Z,11.80
2023-02-12T09:14:09.153Z,12.20
2023-02-12T09:16:37.213Z,12.50
2023-02-12T09:19:04.673Z,12.80
2023-02-12T09:21:31.286Z,13.00
2023-02-12T09:23:57.826Z,13.20
2023-02-12T09:26:28.556Z,13.50
2023-02-12T09:28:55.239Z,13.80
2023-02-12T09:31:27.560Z,13.90
2023-02-12T09:33:58.412Z,13.90
2023-02-12T09:36:25.563Z,14.00
2023-02-12T09:38:54.026Z,14.10
2023-02-12T09:41:54.042Z,14.30
2023-02-12T09:44:40.752Z,14.60
2023-02-12T09:47:31.290Z,14.80
2023-02-12T09:50:42.630Z,15.00
2023-02-12T09:53:14.872Z,15.10
2023-02-12T09:55:41.420Z,15.30
2023-02-12T09:58:15.537Z,15.30
2023-02-12T10:00:42.193Z,15.20
2023-02-12T10:03:14.657Z,15.20
2023-02-12T10:05:43.006Z,15.20
2023-02-12T10:08:12.576Z,15.40
2023-02-12T10:11:17.787Z,15.60
2023-02-12T10:14:21.738Z,15.60
2023-02-12T10:17:05.923Z,15.50
2023-02-12T10:19:44.367Z,15.50
2023-02-12T10:22:23.284Z,15.60
2023-02-12T10:25:27.438Z,15.70
2023-02-12T10:27:56.652Z,15.90
2023-02-12T10:30:31.667Z,15.90
2023-02-12T10:33:06.753Z,16.10
2023-02-12T10:35:34.834Z,16.10
2023-02-12T10:38:13.767Z,16.20
2023-02-12T10:40:44.696Z,16.50
2023-02-12T10:43:12.814Z,16.30
2023-02-12T10:45:42.221Z,16.10
2023-02-12T10:48:24.303Z,16.00
2023-02-12T10:51:02.607Z,15.90
2023-02-12T10:53:35.512Z,16.10
2023-02-12T10:56:22.977Z,16.10
2023-02-12T10:58:59.279Z,16.10
2023-02-12T11:01:33.302Z,16.20
2023-02-12T11:04:18.878Z,16.10
2023-02-12T11:07:04.749Z,16.10
2023-02-12T11:09:45.852Z,16.00
2023-02-12T11:12:24.538Z,16.20
2023-02-12T11:14:57.026Z,16.00
2023-02-12T11:17:39.427Z,15.80
2023-02-12T11:20:18.003Z,15.80
2023-02-12T11:22:55.250Z,15.50
2023-02-12T11:25:23.153Z,15.30
2023-02-12T11:28:05.076Z,15.10
2023-02-12T11:30:32.595Z,14.70
2023-02-12T11:33:27.421Z,14.40
2023-02-12T11:35:57.457Z,14.20
2023-02-12T11:38:28.356Z,13.90
2023-02-12T11:40:59.964Z,13.70
2023-02-12T11:43:29.260Z,13.40
2023-02-12T11:45:57.018Z,13.30
2023-02-12T11:48:31.492Z,13.20
2023-02-12T11:51:02.149Z,13.00
2023-02-12T11:53:50.986Z,13.00
2023-02-12T11:56:18.421Z,12.80
2023-02-12T11:58:47.017Z,12.50
2023-02-12T12:01:22.366Z,12.40
2023-02-12T12:04:08.132Z,12.30
2023-02-12T12:06:38.811Z,12.20
2023-02-12T12:09:27.707Z,12.10
2023-02-12T12:12:16.298Z,12.00
2023-02-12T12:15:08.740Z,11.90
2023-02-12T12:18:05.821Z,11.70
2023-02-12T12:20:41.098Z,11.40
2023-02-12T12:23:21.634Z,11.20
2023-02-12T12:26:22.130Z,11.40
2023-02-12T12:29:01.775Z,11.40
2023-02-12T12:31:41.764Z,11.50
2023-02-12T12:34:22.330Z,11.50
2023-02-12T12:37:12.010Z,11.40
2023-02-12T12:40:25.935Z,11.40
2023-02-12T12:43:02.104Z,11.30
2023-02-12T12:46:00.978Z,11.30
2023-02-12T12:48:59.054Z,11.20
2023-02-12T12:52:23.615Z,11.10
2023-02-12T12:55:40.220Z,11.10
2023-02-12T12:58:35.567Z,11.00
2023-02-12T13:01:05.012Z,11.00
2023-02-12T13:03:58.607Z,11.00
2023-02-12T13:06:31.578Z,10.90
2023-02-12T13:09:17.738Z,11.00
2023-02-12T13:11:56.344Z,11.00
2023-02-12T13:14:47.423Z,11.00
2023-02-12T13:17:23.219Z,11.10
2023-02-12T13:19:57.595Z,11.10
2023-02-12T13:22:40.138Z,11.20
2023-02-12T13:25:19.763Z,11.30
2023-02-12T13:27:47.884Z,11.10
2023-02-12T13:30:14.360Z,11.00
2023-02-12T13:32:47.052Z,11.00
2023-02-12T13:35:20.889Z,10.70
2023-02-12T13:37:51.222Z,10.70
2023-02-12T13:40:21.411Z,10.70
2023-02-12T13:42:53.868Z,10.70
2023-02-12T13:45:44.004Z,10.60
2023-02-12T13:48:42.745Z,10.50
2023-02-12T13:51:29.135Z,10.50
2023-02-12T13:53:59.674Z,10.60
2023-02-12T13:56:34.341Z,10.60
2023-02-12T13:59:01.029Z,10.60
2023-02-12T14:01:49.129Z,10.60
2023-02-12T14:04:22.812Z,10.70
2023-02-12T14:07:06.609Z,10.60
2023-02-12T14:09:37.921Z,10.60
2023-02-12T14:12:10.242Z,10.60
2023-02-12T14:14:44.783Z,10.50
2023-02-12T14:17:41.677Z,10.50
2023-02-12T14:20:25.618Z,10.40
2023-02-12T14:22:52.116Z,10.40
2023-02-12T14:25:24.375Z,10.30
2023-02-12T14:27:58.153Z,10.40
2023-02-12T14:30:31.836Z,10.30
2023-02-12T14:33:11.562Z,10.30
2023-02-12T14:35:43.601Z,10.20
2023-02-12T14:38:16.239Z,10.20
2023-02-12T14:40:50.138Z,10.20
2023-02-12T14:43:56.227Z,10.20
2023-02-12T14:46:22.764Z,10.20
2023-02-12T14:49:21.079Z,10.10
2023-02-12T14:52:17.984Z,10.10
2023-02-12T14:54:47.233Z,10.00
2023-02-12T14:57:35.008Z,10.00
2023-02-12T15:00:19.319Z,10.00
2023-02-12T15:02:59.750Z,10.00
2023-02-12T15:05:31.226Z,10.00
2023-02-12T15:08:28.228Z,10.00
2023-02-12T15:11:27.964Z,10.00
2023-02-12T15:14:03.277Z,10.00
2023-02-12T15:16:35.616Z,10.00
2023-02-12T15:19:20.512Z,10.00
2023-02-12T15:21:48.073Z,10.00
2023-02-12T15:24:23.206Z,10.00
2023-02-12T15:26:52.300Z,10.00
2023-02-12T15:29:33.318Z,10.00
2023-02-12T15:32:04.571Z,9.90
2023-02-12T15:34:35.290Z,9.90
2023-02-12T15:37:03.552Z,9.90
2023-02-12T15:39:43.865Z,9.90
2023-02-12T15:42:33.536Z,9.90
2023-02-12T15:45:15.058Z,9.90
2023-02-12T15:47:42.937Z,9.90
2023-02-12T15:50:15.916Z,9.90
2023-02-12T15:52:46.070Z,9.90
2023-02-12T15:55:25.662Z,9.90
2023-02-12T15:57:55.265Z,9.90
2023-02-12T16:00:35.369Z,9.90
2023-02-12T16:03:01.893Z,9.90
2023-02-12T16:05:29.649Z,9.90
2023-02-12T16:07:56.400Z,9.80
2023-02-12T16:10:23.559Z,9.80
2023-02-12T16:12:51.507Z,9.80
2023-02-12T16:15:30.747Z,9.70
2023-02-12T16:17:59.666Z,9.70
2023-02-12T16:20:28.514Z,9.70
2023-02-12T16:22:56.133Z,9.60
2023-02-12T16:25:31.292Z,9.60
2023-02-12T16:27:59.168Z,9.50
2023-02-12T16:30:27.122Z,9.50
2023-02-12T16:32:54.384Z,9.40
2023-02-12T16:35:26.059Z,9.30
2023-02-12T16:38:24.771Z,9.30
2023-02-12T16:41:26.001Z,9.20
2023-02-12T16:44:01.793Z,9.20
2023-02-12T16:46:49.687Z,9.20
2023-02-12T16:49:18.530Z,9.10
2023-02-12T16:51:46.178Z,9.00
2023-02-12T16:54:34.666Z,9.00
2023-02-12T16:57:02.194Z,8.90
2023-02-12T16:59:29.679Z,8.80
2023-02-12T17:02:02.586Z,8.70
2023-02-12T17:04:29.384Z,8.60
2023-02-12T17:06:56.671Z,8.60
2023-02-12T17:09:23.852Z,8.50
2023-02-12T17:11:50.898Z,8.40
2023-02-12T17:14:19.771Z,8.30
2023-02-12T17:16:47.057Z,8.20
2023-02-12T17:19:13.960Z,8.10
2023-02-12T17:21:43.351Z,8.20
2023-02-12T17:24:20.786Z,8.10
2023-02-12T17:26:47.462Z,8.00
2023-02-12T17:29:13.999Z,8.00
2023-02-12T17:31:40.626Z,8.00
2023-02-12T17:34:07.284Z,8.00
2023-02-12T17:36:34.473Z,8.00
2023-02-12T17:39:03.457Z,7.90
2023-02-12T17:41:31.102Z,7.90
2023-02-12T17:43:57.601Z,7.90
2023-02-12T17:46:26.734Z,7.90
2023-02-12T17:48:53.332Z,7.90
2023-02-12T17:51:20.117Z,7.90
2023-02-12T17:53:46.804Z,7.90
2023-02-12T17:56:17.664Z,7.90
2023-02-12T17:58:46.104Z,7.90
2023-02-12T18:01:15.850Z,7.90
2023-02-12T18:03:42.623Z,7.90
2023-02-12T18:06:13.802Z,7.90
2023-02-12T18:08:40.791Z,7.80
2023-02-12T18:11:10.281Z,7.80
2023-02-12T18:13:37.918Z,7.70
2023-02-12T18:16:09.356Z,7.70
2023-02-12T18:18:36.734Z,7.60
2023-02-12T18:21:11.269Z,7.60
2023-02-12T18:23:39.136Z,7.50
2023-02-12T18:26:11.169Z,7.40
2023-02-12T18:28:38.169Z,7.40
2023-02-12T18:31:05.954Z,7.30
2023-02-12T18:33:36.882Z,7.30
2023-02-12T18:36:06.638Z,7.20
2023-02-12T18:38:35.841Z,7.20
2023-02-12T18:41:18.420Z,7.20
2023-02-12T18:43:46.380Z,7.20
2023-02-12T18:46:15.968Z,7.10
2023-02-12T18:48:43.191Z,7.10
2023-02-12T18:51:14.067Z,7.10
2023-02-12T18:53:40.655Z,7.10
2023-02-12T18:56:08.783Z,7.00
2023-02-12T18:58:36.098Z,7.00
2023-02-12T19:01:17.334Z,7.00
2023-02-12T19:03:45.293Z,7.00
2023-02-12T19:06:12.054Z,6.90
2023-02-12T19:08:39.270Z,6.90
2023-02-12T19:11:07.169Z,6.90
2023-02-12T19:13:33.997Z,6.90
2023-02-12T19:16:09.644Z,6.80
2023-02-12T19:18:36.247Z,6.80
2023-02-12T19:21:10.697Z,6.80
2023-02-12T19:23:38.063Z,6.80
2023-02-12T19:26:09.533Z,6.80
2023-02-12T19:28:38.203Z,6.70
2023-02-12T19:31:32.467Z,6.60
2023-02-12T19:34:01.693Z,6.60
2023-02-12T19:36:32.552Z,6.60
2023-02-12T19:38:59.834Z,6.60
2023-02-12T19:41:28.539Z,6.60
2023-02-12T19:43:58.216Z,6.70
2023-02-12T19:46:27.908Z,6.70
2023-02-12T19:49:02.462Z,6.70
2023-02-12T19:51:30.270Z,6.70
2023-02-12T19:54:02.036Z,6.70
2023-02-12T19:56:28.880Z,6.70
2023-02-12T19:58:57.213Z,6.70
2023-02-12T20:01:24.611Z,6.70
2023-02-12T20:03:51.432Z,6.70
2023-02-12T20:06:24.683Z,6.70
2023-02-12T20:08:51.796Z,6.60
2023-02-12T20:11:24.003Z,6.60
2023-02-12T20:13:50.764Z,6.60
2023-02-12T20:16:20.402Z,6.60
2023-02-12T20:18:49.634Z,6.50
2023-02-12T20:21:27.266Z,6.50
2023-02-12T20:23:54.514Z,6.50
2023-02-12T20:26:21.918Z,6.50
2023-02-12T20:28:49.702Z,6.50
2023-02-12T20:31:25.405Z,6.50
2023-02-12T20:34:07.163Z,6.40
2023-02-12T20:36:36.580Z,6.40
2023-02-12T20:39:04.798Z,6.30
2023-02-12T20:41:31.358Z,6.30
2023-02-12T20:44:00.781Z,6.30
2023-02-12T20:46:27.958Z,6.20
2023-02-12T20:48:55.156Z,6.10
2023-02-12T20:51:24.650Z,6.10
2023-02-12T20:53:51.419Z,6.00
2023-02-12T20:56:24.572Z,5.90
2023-02-12T20:58:51.415Z,5.90
2023-02-12T21:01:32.614Z,5.80
2023-02-12T21:04:13.412Z,5.80
2023-02-12T21:06:41.499Z,5.80
2023-02-12T21:09:10.004Z,5.90
2023-02-12T21:11:37.282Z,5.90
2023-02-12T21:14:20.824Z,5.90
2023-02-12T21:16:48.771Z,6.00
2023-02-12T21:19:15.340Z,5.90
2023-02-12T21:21:44.992Z,5.90
2023-02-12T21:24:15.393Z,5.80
2023-02-12T21:26:42.309Z,5.90
2023-02-12T21:29:08.938Z,5.80
2023-02-12T21:31:38.368Z,5.80
2023-02-12T21:34:06.472Z,5.70
2023-02-12T21:36:36.952Z,5.70
2023-02-12T21:39:06.193Z,5.70
2023-02-12T21:41:35.801Z,5.70
2023-02-12T21:44:10.915Z,5.70
2023-02-12T21:46:37.650Z,5.70
2023-02-12T21:49:05.094Z,5.60
2023-02-12T21:51:34.565Z,5.50
2023-02-12T21:54:04.261Z,5.50
2023-02-12T21:56:31.249Z,5.50
2023-02-12T21:58:59.054Z,5.40
2023-02-12T22:01:28.730Z,5.40
2023-02-12T22:03:55.656Z,5.40
2023-02-12T22:06:24.518Z,5.40
2023-02-12T22:08:52.417Z,5.50
2023-02-12T22:11:20.324Z,5.40
2023-02-12T22:13:47.235Z,5.50
2023-02-12T22:16:17.555Z,5.50
2023-02-12T22:18:45.283Z,5.50
2023-02-12T22:21:13.795Z,5.50
2023-02-12T22:23:41.024Z,5.50
2023-02-12T22:26:15.949Z,5.50
2023-02-12T22:28:45.079Z,5.50
2023-02-12T22:31:14.083Z,5.50
2023-02-12T22:33:40.669Z,5.50
2023-02-12T22:36:09.146Z,5.50
2023-02-12T22:38:37.888Z,5.50
2023-02-12T22:41:05.335Z,5.50
2023-02-12T22:43:33.323Z,5.50
2023-02-12T22:46:00.329Z,5.50
2023-02-12T22:48:28.358Z,5.60
2023-02-12T22:50:55.838Z,5.60
2023-02-12T22:53:23.438Z,5.60
2023-02-12T22:55:50.094Z,5.70
2023-02-12T22:58:16.904Z,5.70
2023-02-12T23:00:44.085Z,5.70
2023-02-12T23:03:10.766Z,5.70
2023-02-12T23:05:38.395Z,5.70
2023-02-12T23:08:06.267Z,5.70
2023-02-12T23:10:33.583Z,5.80
2023-02-12T23:13:02.099Z,5.80
2023-02-12T23:15:28.935Z,5.80
2023-02-12T23:17:55.433Z,5.80
2023-02-12T23:20:22.026Z,5.90
2023-02-12T23:22:48.677Z,5.90
2023-02-12T23:25:15.326Z,5.80
2023-02-12T23:27:41.889Z,5.90
2023-02-12T23:30:09.052Z,5.90
2023-02-12T23:32:35.628Z,5.80
2023-02-12T23:35:02.185Z,5.80
2023-02-12T23:37:28.706Z,5.80
2023-02-12T23:39:55.389Z,5.80
2023-02-12T23:42:21.938Z,5.80
2023-02-12T23:44:48.478Z,5.80
2023-02-12T23:47:14.965Z,5.80
2023-02-12T23:49:41.498Z,5.80
2023-02-12T23:52:08.059Z,5.80
2023-02-12T23:54:34.646Z,5.80
2023-02-12T23:57:01.272Z,5.80
2023-02-12T23:59:27.792Z,5.80
